sensor_id;sensor_type;location;lat;lon;timestamp;pressure;altitude;pressure_sealevel;temperature
73734;BMP280;62039;50.000;9.064;2023-06-26T00:01:30;100198.50;;;23.22
73734;BMP280;62039;50.000;9.064;2023-06-26T00:03:57;100196.03;;;23.16
73734;BMP280;62039;50.000;9.064;2023-06-26T00:06:25;100193.03;;;23.12
73734;BMP280;62039;50.000;9.064;2023-06-26T00:08:52;100187.63;;;23.07
73734;BMP280;62039;50.000;9.064;2023-06-26T00:11:20;100194.72;;;23.01
73734;BMP280;62039;50.000;9.064;2023-06-26T00:13:47;100193.63;;;22.97
73734;BMP280;62039;50.000;9.064;2023-06-26T00:16:14;100193.53;;;22.92
73734;BMP280;62039;50.000;9.064;2023-06-26T00:18:43;100201.22;;;22.89
73734;BMP280;62039;50.000;9.064;2023-06-26T00:21:10;100195.81;;;22.84
73734;BMP280;62039;50.000;9.064;2023-06-26T00:23:37;100198.97;;;22.81
73734;BMP280;62039;50.000;9.064;2023-06-26T00:26:06;100193.31;;;22.77
73734;BMP280;62039;50.000;9.064;2023-06-26T00:28:33;100203.66;;;22.74
73734;BMP280;62039;50.000;9.064;2023-06-26T00:31:00;100194.31;;;22.71
73734;BMP280;62039;50.000;9.064;2023-06-26T00:33:27;100196.63;;;22.67
73734;BMP280;62039;50.000;9.064;2023-06-26T00:35:57;100207.50;;;22.66
73734;BMP280;62039;50.000;9.064;2023-06-26T00:38:24;100197.38;;;22.63
73734;BMP280;62039;50.000;9.064;2023-06-26T00:40:51;100203.16;;;22.60
73734;BMP280;62039;50.000;9.064;2023-06-26T00:43:21;100196.72;;;22.56
73734;BMP280;62039;50.000;9.064;2023-06-26T00:45:49;100189.22;;;22.53
73734;BMP280;62039;50.000;9.064;2023-06-26T00:48:16;100198.50;;;22.50
73734;BMP280;62039;50.000;9.064;2023-06-26T00:50:43;100198.72;;;22.49
73734;BMP280;62039;50.000;9.064;2023-06-26T00:53:13;100204.50;;;22.46
73734;BMP280;62039;50.000;9.064;2023-06-26T00:55:40;100198.88;;;22.42
73734;BMP280;62039;50.000;9.064;2023-06-26T00:58:07;100195.88;;;22.39
73734;BMP280;62039;50.000;9.064;2023-06-26T01:00:34;100194.75;;;22.35
73734;BMP280;62039;50.000;9.064;2023-06-26T01:03:01;100196.84;;;22.32
73734;BMP280;62039;50.000;9.064;2023-06-26T01:05:29;100189.09;;;22.31
73734;BMP280;62039;50.000;9.064;2023-06-26T01:07:57;100188.78;;;22.27
73734;BMP280;62039;50.000;9.064;2023-06-26T01:10:27;100190.88;;;22.25
73734;BMP280;62039;50.000;9.064;2023-06-26T01:12:54;100184.44;;;22.21
73734;BMP280;62039;50.000;9.064;2023-06-26T01:15:22;100190.22;;;22.18
73734;BMP280;62039;50.000;9.064;2023-06-26T01:17:49;100189.09;;;22.14
73734;BMP280;62039;50.000;9.064;2023-06-26T01:20:17;100188.75;;;22.11
73734;BMP280;62039;50.000;9.064;2023-06-26T01:22:52;100191.09;;;22.07
73734;BMP280;62039;50.000;9.064;2023-06-26T01:25:26;100176.69;;;22.03
73734;BMP280;62039;50.000;9.064;2023-06-26T01:27:59;100179.22;;;21.98
73734;BMP280;62039;50.000;9.064;2023-06-26T01:30:27;100171.16;;;21.93
73734;BMP280;62039;50.000;9.064;2023-06-26T01:32:55;100166.53;;;21.88
73734;BMP280;62039;50.000;9.064;2023-06-26T01:35:22;100168.03;;;21.84
73734;BMP280;62039;50.000;9.064;2023-06-26T01:37:49;100159.75;;;21.81
73734;BMP280;62039;50.000;9.064;2023-06-26T01:40:16;100163.44;;;21.80
73734;BMP280;62039;50.000;9.064;2023-06-26T01:42:43;100158.63;;;21.77
73734;BMP280;62039;50.000;9.064;2023-06-26T01:45:17;100163.38;;;21.75
73734;BMP280;62039;50.000;9.064;2023-06-26T01:47:49;100163.81;;;21.72
73734;BMP280;62039;50.000;9.064;2023-06-26T01:50:22;100157.97;;;21.70
73734;BMP280;62039;50.000;9.064;2023-06-26T01:52:55;100157.38;;;21.68
73734;BMP280;62039;50.000;9.064;2023-06-26T01:55:32;100154.16;;;21.66
73734;BMP280;62039;50.000;9.064;2023-06-26T01:58:02;100146.66;;;21.63
73734;BMP280;62039;50.000;9.064;2023-06-26T02:00:32;100157.53;;;21.61
73734;BMP280;62039;50.000;9.064;2023-06-26T02:02:59;100157.19;;;21.58
73734;BMP280;62039;50.000;9.064;2023-06-26T02:05:26;100160.09;;;21.56
73734;BMP280;62039;50.000;9.064;2023-06-26T02:07:53;100161.34;;;21.53
73734;BMP280;62039;50.000;9.064;2023-06-26T02:10:20;100165.06;;;21.52
73734;BMP280;62039;50.000;9.064;2023-06-26T02:12:47;100165.53;;;21.49
73734;BMP280;62039;50.000;9.064;2023-06-26T02:15:14;100158.63;;;21.48
73734;BMP280;62039;50.000;9.064;2023-06-26T02:17:44;100166.00;;;21.46
73734;BMP280;62039;50.000;9.064;2023-06-26T02:20:11;100161.16;;;21.43
73734;BMP280;62039;50.000;9.064;2023-06-26T02:22:38;100164.28;;;21.40
73734;BMP280;62039;50.000;9.064;2023-06-26T02:25:06;100155.97;;;21.37
73734;BMP280;62039;50.000;9.064;2023-06-26T02:27:33;100150.31;;;21.33
73734;BMP280;62039;50.000;9.064;2023-06-26T02:30:00;100155.53;;;21.28
73734;BMP280;62039;50.000;9.064;2023-06-26T02:32:27;100155.41;;;21.23
73734;BMP280;62039;50.000;9.064;2023-06-26T02:34:56;100153.44;;;21.19
73734;BMP280;62039;50.000;9.064;2023-06-26T02:37:23;100154.16;;;21.14
73734;BMP280;62039;50.000;9.064;2023-06-26T02:39:50;100150.34;;;21.10
73734;BMP280;62039;50.000;9.064;2023-06-26T02:42:17;100148.19;;;21.07
73734;BMP280;62039;50.000;9.064;2023-06-26T02:44:44;100153.94;;;21.04
73734;BMP280;62039;50.000;9.064;2023-06-26T02:47:11;100155.47;;;21.00
73734;BMP280;62039;50.000;9.064;2023-06-26T02:49:38;100153.25;;;20.97
73734;BMP280;62039;50.000;9.064;2023-06-26T02:52:08;100159.84;;;20.94
73734;BMP280;62039;50.000;9.064;2023-06-26T02:54:35;100158.47;;;20.92
73734;BMP280;62039;50.000;9.064;2023-06-26T02:57:02;100165.06;;;20.89
73734;BMP280;62039;50.000;9.064;2023-06-26T02:59:29;100159.16;;;20.87
73734;BMP280;62039;50.000;9.064;2023-06-26T03:01:56;100162.84;;;20.86
73734;BMP280;62039;50.000;9.064;2023-06-26T03:04:23;100156.97;;;20.84
73734;BMP280;62039;50.000;9.064;2023-06-26T03:06:50;100164.38;;;20.82
73734;BMP280;62039;50.000;9.064;2023-06-26T03:09:20;100164.38;;;20.82
73734;BMP280;62039;50.000;9.064;2023-06-26T03:11:47;100161.13;;;20.80
73734;BMP280;62039;50.000;9.064;2023-06-26T03:14:14;100155.22;;;20.78
73734;BMP280;62039;50.000;9.064;2023-06-26T03:16:41;100158.13;;;20.76
73734;BMP280;62039;50.000;9.064;2023-06-26T03:19:08;100160.22;;;20.74
73734;BMP280;62039;50.000;9.064;2023-06-26T03:21:35;100161.22;;;20.73
73734;BMP280;62039;50.000;9.064;2023-06-26T03:24:02;100169.41;;;20.72
73734;BMP280;62039;50.000;9.064;2023-06-26T03:26:32;100166.97;;;20.70
73734;BMP280;62039;50.000;9.064;2023-06-26T03:28:58;100163.19;;;20.66
73734;BMP280;62039;50.000;9.064;2023-06-26T03:31:25;100163.63;;;20.63
73734;BMP280;62039;50.000;9.064;2023-06-26T03:33:52;100164.91;;;20.61
73734;BMP280;62039;50.000;9.064;2023-06-26T03:36:20;100162.47;;;20.59
73734;BMP280;62039;50.000;9.064;2023-06-26T03:38:47;100167.19;;;20.57
73734;BMP280;62039;50.000;9.064;2023-06-26T03:41:14;100167.41;;;20.56
73734;BMP280;62039;50.000;9.064;2023-06-26T03:43:43;100163.19;;;20.55
73734;BMP280;62039;50.000;9.064;2023-06-26T03:46:10;100159.13;;;20.52
73734;BMP280;62039;50.000;9.064;2023-06-26T03:48:37;100158.53;;;20.50
73734;BMP280;62039;50.000;9.064;2023-06-26T03:51:04;100159.56;;;20.49
73734;BMP280;62039;50.000;9.064;2023-06-26T03:53:31;100163.28;;;20.48
73734;BMP280;62039;50.000;9.064;2023-06-26T03:55:58;100156.59;;;20.46
73734;BMP280;62039;50.000;9.064;2023-06-26T03:58:25;100160.50;;;20.43
73734;BMP280;62039;50.000;9.064;2023-06-26T04:00:54;100153.59;;;20.42
73734;BMP280;62039;50.000;9.064;2023-06-26T04:03:22;100149.75;;;20.38
73734;BMP280;62039;50.000;9.064;2023-06-26T04:05:49;100153.66;;;20.35
73734;BMP280;62039;50.000;9.064;2023-06-26T04:08:16;100152.31;;;20.33
73734;BMP280;62039;50.000;9.064;2023-06-26T04:10:43;100158.63;;;20.32
73734;BMP280;62039;50.000;9.064;2023-06-26T04:13:10;100162.09;;;20.32
73734;BMP280;62039;50.000;9.064;2023-06-26T04:15:37;100157.03;;;20.31
73734;BMP280;62039;50.000;9.064;2023-06-26T04:18:07;100160.25;;;20.33
73734;BMP280;62039;50.000;9.064;2023-06-26T04:20:38;100161.06;;;20.33
73734;BMP280;62039;50.000;9.064;2023-06-26T04:23:06;100167.19;;;20.34
73734;BMP280;62039;50.000;9.064;2023-06-26T04:25:33;100172.50;;;20.34
73734;BMP280;62039;50.000;9.064;2023-06-26T04:28:00;100173.53;;;20.33
73734;BMP280;62039;50.000;9.064;2023-06-26T04:30:27;100176.75;;;20.35
73734;BMP280;62039;50.000;9.064;2023-06-26T04:32:54;100179.63;;;20.33
73734;BMP280;62039;50.000;9.064;2023-06-26T04:35:23;100180.44;;;20.34
73734;BMP280;62039;50.000;9.064;2023-06-26T04:37:50;100171.69;;;20.33
73734;BMP280;62039;50.000;9.064;2023-06-26T04:40:17;100176.75;;;20.35
73734;BMP280;62039;50.000;9.064;2023-06-26T04:42:44;100182.84;;;20.35
73734;BMP280;62039;50.000;9.064;2023-06-26T04:45:11;100181.59;;;20.38
73734;BMP280;62039;50.000;9.064;2023-06-26T04:47:38;100177.69;;;20.41
73734;BMP280;62039;50.000;9.064;2023-06-26T04:50:06;100170.28;;;20.43
73734;BMP280;62039;50.000;9.064;2023-06-26T04:52:36;100165.94;;;20.48
73734;BMP280;62039;50.000;9.064;2023-06-26T04:55:03;100175.03;;;20.52
73734;BMP280;62039;50.000;9.064;2023-06-26T04:57:30;100174.94;;;20.59
73734;BMP280;62039;50.000;9.064;2023-06-26T04:59:57;100178.28;;;20.66
73734;BMP280;62039;50.000;9.064;2023-06-26T05:02:24;100175.53;;;20.72
73734;BMP280;62039;50.000;9.064;2023-06-26T05:04:51;100179.94;;;20.79
73734;BMP280;62039;50.000;9.064;2023-06-26T05:07:18;100175.31;;;20.86
73734;BMP280;62039;50.000;9.064;2023-06-26T05:09:48;100168.03;;;20.93
73734;BMP280;62039;50.000;9.064;2023-06-26T05:12:15;100177.28;;;21.02
73734;BMP280;62039;50.000;9.064;2023-06-26T05:14:42;100165.25;;;21.11
73734;BMP280;62039;50.000;9.064;2023-06-26T05:17:09;100162.22;;;21.19
73734;BMP280;62039;50.000;9.064;2023-06-26T05:19:35;100170.41;;;21.29
73734;BMP280;62039;50.000;9.064;2023-06-26T05:22:03;100158.41;;;21.38
73734;BMP280;62039;50.000;9.064;2023-06-26T05:24:30;100160.69;;;21.46
73734;BMP280;62039;50.000;9.064;2023-06-26T05:27:01;100155.59;;;21.57
73734;BMP280;62039;50.000;9.064;2023-06-26T05:29:30;100162.69;;;21.68
73734;BMP280;62039;50.000;9.064;2023-06-26T05:31:58;100159.16;;;21.79
73734;BMP280;62039;50.000;9.064;2023-06-26T05:34:26;100149.53;;;21.89
73734;BMP280;62039;50.000;9.064;2023-06-26T05:36:57;100152.97;;;22.02
73734;BMP280;62039;50.000;9.064;2023-06-26T05:39:25;100152.91;;;22.13
73734;BMP280;62039;50.000;9.064;2023-06-26T05:41:53;100152.00;;;22.24
73734;BMP280;62039;50.000;9.064;2023-06-26T05:44:22;100154.63;;;22.36
73734;BMP280;62039;50.000;9.064;2023-06-26T05:46:49;100157.19;;;22.48
73734;BMP280;62039;50.000;9.064;2023-06-26T05:49:16;100160.59;;;22.60
73734;BMP280;62039;50.000;9.064;2023-06-26T05:51:44;100156.78;;;22.73
73734;BMP280;62039;50.000;9.064;2023-06-26T05:54:12;100152.13;;;22.85
73734;BMP280;62039;50.000;9.064;2023-06-26T05:56:39;100157.91;;;22.98
73734;BMP280;62039;50.000;9.064;2023-06-26T05:59:10;100156.81;;;23.11
73734;BMP280;62039;50.000;9.064;2023-06-26T06:01:40;100158.03;;;23.25
73734;BMP280;62039;50.000;9.064;2023-06-26T06:04:07;100155.25;;;23.37
73734;BMP280;62039;50.000;9.064;2023-06-26T06:06:34;100158.59;;;23.49
73734;BMP280;62039;50.000;9.064;2023-06-26T06:09:01;100164.38;;;23.63
73734;BMP280;62039;50.000;9.064;2023-06-26T06:11:28;100163.97;;;23.76
73734;BMP280;62039;50.000;9.064;2023-06-26T06:13:55;100154.50;;;23.90
73734;BMP280;62039;50.000;9.064;2023-06-26T06:16:22;100157.56;;;24.04
73734;BMP280;62039;50.000;9.064;2023-06-26T06:18:52;100158.78;;;24.18
73734;BMP280;62039;50.000;9.064;2023-06-26T06:21:19;100152.78;;;24.33
73734;BMP280;62039;50.000;9.064;2023-06-26T06:23:45;100147.00;;;24.46
73734;BMP280;62039;50.000;9.064;2023-06-26T06:26:12;100149.50;;;24.62
73734;BMP280;62039;50.000;9.064;2023-06-26T06:28:39;100154.16;;;24.77
73734;BMP280;62039;50.000;9.064;2023-06-26T06:31:06;100152.63;;;24.91
73734;BMP280;62039;50.000;9.064;2023-06-26T06:33:33;100149.25;;;25.06
73734;BMP280;62039;50.000;9.064;2023-06-26T06:36:04;100153.59;;;25.22
73734;BMP280;62039;50.000;9.064;2023-06-26T06:38:31;100150.44;;;25.35
73734;BMP280;62039;50.000;9.064;2023-06-26T06:40:58;100138.72;;;25.52
73734;BMP280;62039;50.000;9.064;2023-06-26T06:43:25;100137.41;;;25.64
73734;BMP280;62039;50.000;9.064;2023-06-26T06:45:52;100143.34;;;25.81
73734;BMP280;62039;50.000;9.064;2023-06-26T06:48:19;100139.06;;;25.96
73734;BMP280;62039;50.000;9.064;2023-06-26T06:50:46;100139.88;;;26.11
73734;BMP280;62039;50.000;9.064;2023-06-26T06:53:16;100134.56;;;26.27
73734;BMP280;62039;50.000;9.064;2023-06-26T06:55:43;100129.16;;;26.42
73734;BMP280;62039;50.000;9.064;2023-06-26T06:58:09;100125.41;;;26.58
73734;BMP280;62039;50.000;9.064;2023-06-26T07:00:36;100119.25;;;26.73
73734;BMP280;62039;50.000;9.064;2023-06-26T07:03:04;100110.84;;;26.89
73734;BMP280;62039;50.000;9.064;2023-06-26T07:05:31;100115.09;;;27.06
73734;BMP280;62039;50.000;9.064;2023-06-26T07:07:58;100109.44;;;27.22
73734;BMP280;62039;50.000;9.064;2023-06-26T07:10:31;100115.22;;;27.40
73734;BMP280;62039;50.000;9.064;2023-06-26T07:12:58;100106.28;;;27.54
73734;BMP280;62039;50.000;9.064;2023-06-26T07:15:25;100102.41;;;27.70
73734;BMP280;62039;50.000;9.064;2023-06-26T07:17:53;100099.63;;;27.86
73734;BMP280;62039;50.000;9.064;2023-06-26T07:20:20;100107.56;;;28.01
73734;BMP280;62039;50.000;9.064;2023-06-26T07:22:48;100105.81;;;28.15
73734;BMP280;62039;50.000;9.064;2023-06-26T07:25:15;100105.72;;;28.30
73734;BMP280;62039;50.000;9.064;2023-06-26T07:27:44;100101.56;;;28.43
73734;BMP280;62039;50.000;9.064;2023-06-26T07:30:12;100101.66;;;28.57
73734;BMP280;62039;50.000;9.064;2023-06-26T07:32:39;100097.22;;;28.71
73734;BMP280;62039;50.000;9.064;2023-06-26T07:35:06;100103.81;;;28.83
73734;BMP280;62039;50.000;9.064;2023-06-26T07:37:33;100091.84;;;28.95
73734;BMP280;62039;50.000;9.064;2023-06-26T07:40:00;100094.09;;;29.06
73734;BMP280;62039;50.000;9.064;2023-06-26T07:42:27;100096.38;;;29.18
73734;BMP280;62039;50.000;9.064;2023-06-26T07:44:57;100088.69;;;29.30
73734;BMP280;62039;50.000;9.064;2023-06-26T07:47:24;100096.03;;;29.43
73734;BMP280;62039;50.000;9.064;2023-06-26T07:49:51;100100.41;;;29.58
73734;BMP280;62039;50.000;9.064;2023-06-26T07:52:18;100081.31;;;29.73
73734;BMP280;62039;50.000;9.064;2023-06-26T07:54:45;100096.94;;;29.90
73734;BMP280;62039;50.000;9.064;2023-06-26T07:57:12;100091.81;;;30.07
73734;BMP280;62039;50.000;9.064;2023-06-26T07:59:39;100088.28;;;30.25
73734;BMP280;62039;50.000;9.064;2023-06-26T08:02:09;100084.97;;;30.42
73734;BMP280;62039;50.000;9.064;2023-06-26T08:04:36;100095.78;;;30.56
73734;BMP280;62039;50.000;9.064;2023-06-26T08:07:04;100089.31;;;30.70
73734;BMP280;62039;50.000;9.064;2023-06-26T08:09:31;100091.97;;;30.84
73734;BMP280;62039;50.000;9.064;2023-06-26T08:11:58;100092.59;;;30.95
73734;BMP280;62039;50.000;9.064;2023-06-26T08:14:25;100082.06;;;31.07
73734;BMP280;62039;50.000;9.064;2023-06-26T08:16:53;100080.25;;;31.16
73734;BMP280;62039;50.000;9.064;2023-06-26T08:19:22;100091.63;;;31.27
73734;BMP280;62039;50.000;9.064;2023-06-26T08:21:49;100088.97;;;31.35
73734;BMP280;62039;50.000;9.064;2023-06-26T08:24:16;100090.50;;;31.41
73734;BMP280;62039;50.000;9.064;2023-06-26T08:26:44;100092.22;;;31.37
73734;BMP280;62039;50.000;9.064;2023-06-26T08:29:11;100092.59;;;31.31
73734;BMP280;62039;50.000;9.064;2023-06-26T08:31:38;100096.69;;;31.28
73734;BMP280;62039;50.000;9.064;2023-06-26T08:34:06;100081.81;;;31.31
73734;BMP280;62039;50.000;9.064;2023-06-26T08:36:36;100074.81;;;31.30
73734;BMP280;62039;50.000;9.064;2023-06-26T08:39:03;100073.72;;;31.31
73734;BMP280;62039;50.000;9.064;2023-06-26T08:41:30;100076.28;;;31.36
73734;BMP280;62039;50.000;9.064;2023-06-26T08:43:57;100075.41;;;31.40
73734;BMP280;62039;50.000;9.064;2023-06-26T08:46:25;100068.59;;;31.43
73734;BMP280;62039;50.000;9.064;2023-06-26T08:48:55;100074.19;;;31.46
73734;BMP280;62039;50.000;9.064;2023-06-26T08:51:24;100073.56;;;31.49
73734;BMP280;62039;50.000;9.064;2023-06-26T08:53:56;100083.63;;;31.57
73734;BMP280;62039;50.000;9.064;2023-06-26T08:56:25;100084.50;;;31.67
73734;BMP280;62039;50.000;9.064;2023-06-26T08:58:54;100084.06;;;31.73
73734;BMP280;62039;50.000;9.064;2023-06-26T09:01:21;100076.44;;;31.75
73734;BMP280;62039;50.000;9.064;2023-06-26T09:03:49;100081.25;;;31.78
73734;BMP280;62039;50.000;9.064;2023-06-26T09:06:16;100086.03;;;31.81
73734;BMP280;62039;50.000;9.064;2023-06-26T09:08:43;100089.53;;;31.82
73734;BMP280;62039;50.000;9.064;2023-06-26T09:11:13;100087.63;;;31.82
73734;BMP280;62039;50.000;9.064;2023-06-26T09:13:40;100080.84;;;31.85
73734;BMP280;62039;50.000;9.064;2023-06-26T09:16:07;100077.03;;;31.86
73734;BMP280;62039;50.000;9.064;2023-06-26T09:18:35;100083.22;;;31.86
73734;BMP280;62039;50.000;9.064;2023-06-26T09:21:06;100077.19;;;31.89
73734;BMP280;62039;50.000;9.064;2023-06-26T09:23:34;100075.78;;;31.92
73734;BMP280;62039;50.000;9.064;2023-06-26T09:26:02;100084.69;;;31.92
73734;BMP280;62039;50.000;9.064;2023-06-26T09:28:33;100085.00;;;31.91
73734;BMP280;62039;50.000;9.064;2023-06-26T09:31:04;100088.78;;;31.90
73734;BMP280;62039;50.000;9.064;2023-06-26T09:33:35;100093.09;;;31.91
73734;BMP280;62039;50.000;9.064;2023-06-26T09:36:04;100083.59;;;31.93
73734;BMP280;62039;50.000;9.064;2023-06-26T09:38:31;100087.09;;;31.94
73734;BMP280;62039;50.000;9.064;2023-06-26T09:40:58;100095.78;;;31.91
73734;BMP280;62039;50.000;9.064;2023-06-26T09:43:25;100091.50;;;31.90
73734;BMP280;62039;50.000;9.064;2023-06-26T09:45:54;100091.19;;;31.91
73734;BMP280;62039;50.000;9.064;2023-06-26T09:48:24;100087.38;;;31.92
73734;BMP280;62039;50.000;9.064;2023-06-26T09:50:53;100087.09;;;31.94
73734;BMP280;62039;50.000;9.064;2023-06-26T09:53:38;100081.69;;;31.94
73734;BMP280;62039;50.000;9.064;2023-06-26T09:56:05;100082.66;;;31.98
73734;BMP280;62039;50.000;9.064;2023-06-26T09:58:33;100081.72;;;32.03
73734;BMP280;62039;50.000;9.064;2023-06-26T10:01:03;100090.75;;;31.98
73734;BMP280;62039;50.000;9.064;2023-06-26T10:03:30;100087.38;;;31.92
73734;BMP280;62039;50.000;9.064;2023-06-26T10:05:58;100089.78;;;31.94
73734;BMP280;62039;50.000;9.064;2023-06-26T10:08:27;100085.94;;;31.95
73734;BMP280;62039;50.000;9.064;2023-06-26T10:10:54;100086.94;;;31.99
73734;BMP280;62039;50.000;9.064;2023-06-26T10:13:26;100090.75;;;31.98
73734;BMP280;62039;50.000;9.064;2023-06-26T10:15:54;100086.44;;;31.97
73734;BMP280;62039;50.000;9.064;2023-06-26T10:18:25;100091.56;;;31.98
73734;BMP280;62039;50.000;9.064;2023-06-26T10:20:55;100080.44;;;32.00
73734;BMP280;62039;50.000;9.064;2023-06-26T10:23:25;100077.09;;;32.03
73734;BMP280;62039;50.000;9.064;2023-06-26T10:25:55;100079.31;;;32.01
73734;BMP280;62039;50.000;9.064;2023-06-26T10:28:28;100077.56;;;31.96
73734;BMP280;62039;50.000;9.064;2023-06-26T10:30:57;100082.97;;;31.96
73734;BMP280;62039;50.000;9.064;2023-06-26T10:33:27;100080.44;;;32.00
73734;BMP280;62039;50.000;9.064;2023-06-26T10:36:12;100080.13;;;32.02
73734;BMP280;62039;50.000;9.064;2023-06-26T10:38:49;100089.00;;;32.02
73734;BMP280;62039;50.000;9.064;2023-06-26T10:41:19;100080.91;;;32.02
73734;BMP280;62039;50.000;9.064;2023-06-26T10:43:49;100088.91;;;32.07
73734;BMP280;62039;50.000;9.064;2023-06-26T10:46:18;100086.06;;;32.12
73734;BMP280;62039;50.000;9.064;2023-06-26T10:48:59;100091.47;;;32.12
73734;BMP280;62039;50.000;9.064;2023-06-26T10:51:26;100094.66;;;32.14
73734;BMP280;62039;50.000;9.064;2023-06-26T10:53:56;100086.13;;;32.21
73734;BMP280;62039;50.000;9.064;2023-06-26T10:56:42;100081.69;;;32.25
73734;BMP280;62039;50.000;9.064;2023-06-26T10:59:16;100083.94;;;32.31
73734;BMP280;62039;50.000;9.064;2023-06-26T11:01:44;100088.41;;;32.36
73734;BMP280;62039;50.000;9.064;2023-06-26T11:04:14;100082.09;;;32.41
73734;BMP280;62039;50.000;9.064;2023-06-26T11:06:45;100093.34;;;32.43
73734;BMP280;62039;50.000;9.064;2023-06-26T11:09:15;100088.28;;;32.41
73734;BMP280;62039;50.000;9.064;2023-06-26T11:11:58;100079.69;;;32.39
73734;BMP280;62039;50.000;9.064;2023-06-26T11:14:26;100077.59;;;32.36
73734;BMP280;62039;50.000;9.064;2023-06-26T11:16:55;100077.91;;;32.34
73734;BMP280;62039;50.000;9.064;2023-06-26T11:19:26;100080.31;;;32.36
73734;BMP280;62039;50.000;9.064;2023-06-26T11:21:58;100077.59;;;32.36
73734;BMP280;62039;50.000;9.064;2023-06-26T11:24:25;100085.53;;;32.32
73734;BMP280;62039;50.000;9.064;2023-06-26T11:26:52;100088.41;;;32.27
73734;BMP280;62039;50.000;9.064;2023-06-26T11:29:19;100089.81;;;32.25
73734;BMP280;62039;50.000;9.064;2023-06-26T11:31:46;100095.50;;;32.23
73734;BMP280;62039;50.000;9.064;2023-06-26T11:34:13;100094.22;;;32.21
73734;BMP280;62039;50.000;9.064;2023-06-26T11:36:43;100091.81;;;32.19
73734;BMP280;62039;50.000;9.064;2023-06-26T11:39:10;100102.44;;;32.16
73734;BMP280;62039;50.000;9.064;2023-06-26T11:41:37;100094.16;;;32.12
73734;BMP280;62039;50.000;9.064;2023-06-26T11:44:06;100093.66;;;32.10
73734;BMP280;62039;50.000;9.064;2023-06-26T11:46:34;100098.56;;;32.08
73734;BMP280;62039;50.000;9.064;2023-06-26T11:49:03;100097.31;;;32.06
73734;BMP280;62039;50.000;9.064;2023-06-26T11:51:30;100093.81;;;32.05
73734;BMP280;62039;50.000;9.064;2023-06-26T11:54:00;100106.31;;;32.01
73734;BMP280;62039;50.000;9.064;2023-06-26T11:56:27;100109.78;;;31.93
73734;BMP280;62039;50.000;9.064;2023-06-26T11:58:57;100114.03;;;31.85
73734;BMP280;62039;50.000;9.064;2023-06-26T12:01:25;100109.16;;;31.74
73734;BMP280;62039;50.000;9.064;2023-06-26T12:03:57;100119.53;;;31.58
73734;BMP280;62039;50.000;9.064;2023-06-26T12:06:25;100127.16;;;31.42
73734;BMP280;62039;50.000;9.064;2023-06-26T12:08:53;100122.41;;;31.26
73734;BMP280;62039;50.000;9.064;2023-06-26T12:11:23;100127.81;;;31.12
73734;BMP280;62039;50.000;9.064;2023-06-26T12:13:51;100122.63;;;31.02
73734;BMP280;62039;50.000;9.064;2023-06-26T12:16:18;100127.84;;;30.98
73734;BMP280;62039;50.000;9.064;2023-06-26T12:18:45;100121.66;;;30.98
73734;BMP280;62039;50.000;9.064;2023-06-26T12:21:27;100123.72;;;31.01
73734;BMP280;62039;50.000;9.064;2023-06-26T12:23:58;100117.75;;;31.04
73734;BMP280;62039;50.000;9.064;2023-06-26T12:26:31;100116.03;;;31.08
73734;BMP280;62039;50.000;9.064;2023-06-26T12:29:02;100110.63;;;31.08
73734;BMP280;62039;50.000;9.064;2023-06-26T12:31:29;100114.63;;;31.10
73734;BMP280;62039;50.000;9.064;2023-06-26T12:33:56;100124.03;;;31.13
73734;BMP280;62039;50.000;9.064;2023-06-26T12:36:23;100120.03;;;31.10
73734;BMP280;62039;50.000;9.064;2023-06-26T12:38:52;100120.63;;;31.07
73734;BMP280;62039;50.000;9.064;2023-06-26T12:41:19;100116.66;;;31.05
73734;BMP280;62039;50.000;9.064;2023-06-26T12:43:49;100118.84;;;31.03
73734;BMP280;62039;50.000;9.064;2023-06-26T12:46:16;100115.63;;;31.01
73734;BMP280;62039;50.000;9.064;2023-06-26T12:48:43;100109.28;;;30.97
73734;BMP280;62039;50.000;9.064;2023-06-26T12:51:11;100114.66;;;30.97
73734;BMP280;62039;50.000;9.064;2023-06-26T12:53:38;100108.47;;;30.96
73734;BMP280;62039;50.000;9.064;2023-06-26T12:56:05;100109.84;;;30.94
73734;BMP280;62039;50.000;9.064;2023-06-26T12:58:32;100115.03;;;30.90
73734;BMP280;62039;50.000;9.064;2023-06-26T13:01:03;100111.03;;;30.88
73734;BMP280;62039;50.000;9.064;2023-06-26T13:03:30;100110.34;;;30.82
73734;BMP280;62039;50.000;9.064;2023-06-26T13:05:59;100106.66;;;30.78
73734;BMP280;62039;50.000;9.064;2023-06-26T13:08:26;100100.47;;;30.77
73734;BMP280;62039;50.000;9.064;2023-06-26T13:10:53;100098.59;;;30.78
73734;BMP280;62039;50.000;9.064;2023-06-26T13:13:20;100087.81;;;30.78
73734;BMP280;62039;50.000;9.064;2023-06-26T13:15:47;100097.78;;;30.77
73734;BMP280;62039;50.000;9.064;2023-06-26T13:18:16;100091.28;;;30.78
73734;BMP280;62039;50.000;9.064;2023-06-26T13:20:43;100086.69;;;30.79
73734;BMP280;62039;50.000;9.064;2023-06-26T13:23:10;100101.47;;;30.81
73734;BMP280;62039;50.000;9.064;2023-06-26T13:25:37;100111.25;;;30.77
73734;BMP280;62039;50.000;9.064;2023-06-26T13:28:04;100101.88;;;30.75
73734;BMP280;62039;50.000;9.064;2023-06-26T13:30:31;100100.25;;;30.74
73734;BMP280;62039;50.000;9.064;2023-06-26T13:32:58;100107.56;;;30.73
73734;BMP280;62039;50.000;9.064;2023-06-26T13:35:28;100099.78;;;30.72
73734;BMP280;62039;50.000;9.064;2023-06-26T13:37:55;100102.88;;;30.65
73734;BMP280;62039;50.000;9.064;2023-06-26T13:40:22;100112.66;;;30.61
73734;BMP280;62039;50.000;9.064;2023-06-26T13:42:49;100119.25;;;30.55
73734;BMP280;62039;50.000;9.064;2023-06-26T13:45:16;100118.84;;;30.48
73734;BMP280;62039;50.000;9.064;2023-06-26T13:47:56;100130.19;;;30.31
73734;BMP280;62039;50.000;9.064;2023-06-26T13:50:23;100111.78;;;30.20
73734;BMP280;62039;50.000;9.064;2023-06-26T13:52:53;100127.03;;;30.11
73734;BMP280;62039;50.000;9.064;2023-06-26T13:55:20;100133.91;;;30.03
73734;BMP280;62039;50.000;9.064;2023-06-26T13:57:47;100138.81;;;29.96
73734;BMP280;62039;50.000;9.064;2023-06-26T14:00:15;100139.78;;;29.86
73734;BMP280;62039;50.000;9.064;2023-06-26T14:02:42;100142.13;;;29.74